Time;durP1;ratioP1;P1;durP2;ratioP2;P2;SDS_P1;SDS_P2;PMS_P1;PMS_P2;Temp;Humidity;BMP_temperature;BMP_pressure;BME280_temperature;BME280_humidity;BME280_pressure;Samples;Min_cycle;Max_cycle;Signal;HPM_P1;HPM_P2
2021/05/30 00:00:35;;;;;;;1.42;0.77;;;22.50;42.50;;;;;;5013029;28;20400;-58
2021/05/30 00:03:01;;;;;;;1.30;0.73;;;22.40;42.50;;;;;;5012975;28;20487;-58
2021/05/30 00:05:27;;;;;;;1.75;0.85;;;22.40;42.40;;;;;;5013142;28;20756;-58
2021/05/30 00:07:56;;;;;;;1.00;0.80;;;22.40;42.40;;;;;;5013236;28;20397;-58
2021/05/30 00:10:22;;;;;;;1.10;0.90;;;22.40;42.50;;;;;;5012887;28;20417;-57
2021/05/30 00:12:48;;;;;;;1.50;0.80;;;22.40;42.40;;;;;;5012615;28;20393;-58
2021/05/30 00:15:14;;;;;;;1.00;0.80;;;22.40;42.50;;;;;;5012938;28;20399;-58
2021/05/30 00:17:40;;;;;;;1.00;0.70;;;22.40;42.40;;;;;;5012947;28;20431;-58
2021/05/30 00:20:07;;;;;;;1.50;0.70;;;22.40;42.40;;;;;;5012959;28;20400;-58
2021/05/30 00:22:33;;;;;;;1.35;0.73;;;22.40;42.50;;;;;;5012611;28;20373;-58
2021/05/30 00:25:00;;;;;;;1.00;0.70;;;22.40;42.40;;;;;;5011458;28;20478;-58
2021/05/30 00:27:26;;;;;;;1.17;0.70;;;22.40;42.40;;;;;;5012801;28;20384;-58
2021/05/30 00:29:53;;;;;;;1.10;0.70;;;22.40;42.40;;;;;;5011452;28;20427;-58
2021/05/30 00:32:19;;;;;;;0.95;0.70;;;22.30;42.40;;;;;;5012647;28;20392;-58
2021/05/30 00:34:44;;;;;;;1.40;0.75;;;22.30;42.40;;;;;;5010930;28;20404;-58
2021/05/30 00:37:10;;;;;;;1.15;0.80;;;22.40;42.40;;;;;;5012712;28;20381;-58
2021/05/30 00:39:36;;;;;;;1.00;0.73;;;22.30;42.40;;;;;;5012586;28;20471;-58
2021/05/30 00:42:02;;;;;;;1.25;0.80;;;22.30;42.40;;;;;;5011374;28;20588;-58
2021/05/30 00:44:29;;;;;;;1.35;0.82;;;22.30;42.40;;;;;;5012288;28;20742;-58
2021/05/30 00:46:56;;;;;;;1.00;0.70;;;22.30;42.40;;;;;;5012233;28;20444;-58
2021/05/30 00:49:23;;;;;;;0.98;0.70;;;22.30;42.40;;;;;;5012202;28;20400;-58
2021/05/30 00:51:50;;;;;;;1.48;0.80;;;22.30;42.40;;;;;;5012446;28;20408;-58
2021/05/30 00:54:17;;;;;;;1.60;0.70;;;22.30;42.40;;;;;;5012287;28;20393;-58
2021/05/30 00:56:43;;;;;;;1.00;0.70;;;22.30;42.40;;;;;;5011953;28;20440;-58
2021/05/30 00:59:09;;;;;;;0.97;0.70;;;22.30;42.40;;;;;;5012258;28;20392;-58
2021/05/30 01:01:36;;;;;;;0.90;0.70;;;22.30;42.40;;;;;;5012294;28;20417;-58
2021/05/30 01:04:01;;;;;;;1.00;0.70;;;22.20;42.30;;;;;;5012180;28;20418;-58
2021/05/30 01:06:28;;;;;;;1.20;0.90;;;22.20;42.30;;;;;;5012164;28;20809;-58
2021/05/30 01:08:54;;;;;;;1.00;0.60;;;22.20;42.30;;;;;;5011988;28;20809;-58
2021/05/30 01:11:22;;;;;;;1.00;0.73;;;22.20;42.30;;;;;;5012045;28;20877;-58
2021/05/30 01:13:51;;;;;;;1.30;0.80;;;22.20;42.30;;;;;;5012172;28;20442;-58
2021/05/30 01:16:18;;;;;;;0.90;0.60;;;22.20;42.30;;;;;;5011694;28;20454;-58
2021/05/30 01:18:46;;;;;;;1.20;0.80;;;22.20;42.30;;;;;;5011240;28;20549;-58
2021/05/30 01:21:11;;;;;;;1.00;0.77;;;22.20;42.30;;;;;;5011947;28;20381;-58
2021/05/30 01:23:37;;;;;;;1.20;0.80;;;22.20;42.30;;;;;;5011906;28;20438;-58
2021/05/30 01:26:03;;;;;;;1.15;0.85;;;22.20;42.30;;;;;;5012023;28;20442;-58
2021/05/30 01:28:28;;;;;;;1.20;0.80;;;22.20;42.30;;;;;;5011891;28;20393;-58
2021/05/30 01:30:54;;;;;;;1.33;0.80;;;22.20;42.30;;;;;;5011342;28;20972;-58
2021/05/30 01:33:20;;;;;;;1.38;0.80;;;22.20;42.30;;;;;;5011762;28;20385;-57
2021/05/30 01:35:45;;;;;;;1.30;0.80;;;22.20;42.30;;;;;;5011832;28;20943;-58
2021/05/30 01:38:11;;;;;;;1.30;0.90;;;22.10;42.30;;;;;;5011818;28;20388;-58
2021/05/30 01:40:37;;;;;;;1.50;0.77;;;22.10;42.30;;;;;;5011546;28;20397;-58
2021/05/30 01:43:03;;;;;;;1.10;0.68;;;22.20;42.30;;;;;;5011389;28;20436;-58
2021/05/30 01:45:30;;;;;;;1.10;0.70;;;22.10;42.30;;;;;;5011769;28;20813;-58
2021/05/30 01:47:57;;;;;;;1.40;0.80;;;22.10;42.30;;;;;;5011674;28;20400;-58
2021/05/30 01:50:26;;;;;;;1.20;0.80;;;22.10;42.30;;;;;;5011606;28;20500;-58
2021/05/30 01:52:52;;;;;;;1.20;0.73;;;22.10;42.30;;;;;;5011299;28;20388;-58
2021/05/30 01:55:42;;;;;;;1.20;0.80;;;22.10;42.30;;;;;;5011873;28;20399;-58
2021/05/30 01:58:08;;;;;;;0.95;0.80;;;22.10;42.30;;;;;;5011496;28;20388;-58
2021/05/30 02:00:35;;;;;;;1.40;0.90;;;22.10;42.30;;;;;;5013449;28;20455;-58
2021/05/30 02:03:02;;;;;;;1.27;0.80;;;22.10;42.30;;;;;;5015318;28;20388;-58
2021/05/30 02:05:28;;;;;;;1.50;0.82;;;22.10;42.20;;;;;;5015474;28;20396;-58
2021/05/30 02:07:54;;;;;;;1.02;0.80;;;22.10;42.20;;;;;;5015393;28;20388;-58
2021/05/30 02:10:22;;;;;;;1.70;0.80;;;22.00;42.00;;;;;;5015137;28;20421;-58
2021/05/30 02:12:51;;;;;;;1.33;1.00;;;22.00;42.00;;;;;;5014846;28;20878;-58
2021/05/30 02:15:17;;;;;;;1.73;1.10;;;22.00;42.00;;;;;;5015187;28;20487;-58
2021/05/30 02:17:44;;;;;;;1.13;0.82;;;22.10;42.00;;;;;;5015502;28;20415;-58
2021/05/30 02:20:11;;;;;;;1.20;0.90;;;22.00;42.00;;;;;;5015126;28;20397;-58
2021/05/30 02:22:37;;;;;;;0.95;0.70;;;22.00;42.00;;;;;;5015133;28;20384;-58
2021/05/30 02:25:04;;;;;;;1.25;1.00;;;22.00;42.00;;;;;;5014889;28;20400;-58
2021/05/30 02:27:30;;;;;;;1.85;0.90;;;22.00;41.90;;;;;;5014967;28;20392;-58
2021/05/30 02:29:55;;;;;;;1.40;0.80;;;22.00;41.90;;;;;;5015061;28;20424;-58
2021/05/30 02:32:21;;;;;;;1.40;0.80;;;22.00;41.90;;;;;;5014953;28;20381;-58
2021/05/30 02:34:47;;;;;;;1.13;0.80;;;22.00;41.90;;;;;;5014324;28;20501;-58
2021/05/30 02:37:15;;;;;;;1.27;0.90;;;22.00;42.00;;;;;;5014810;28;20510;-58
2021/05/30 02:39:41;;;;;;;1.15;0.80;;;22.00;42.00;;;;;;5014832;28;20435;-58
2021/05/30 02:42:08;;;;;;;1.10;0.70;;;22.00;41.90;;;;;;5015032;28;20881;-58
2021/05/30 02:44:34;;;;;;;1.10;0.77;;;22.00;41.90;;;;;;5014708;28;20873;-58
2021/05/30 02:47:00;;;;;;;1.30;0.82;;;22.00;41.90;;;;;;5014272;28;20483;-58
2021/05/30 02:49:26;;;;;;;1.17;0.83;;;21.90;41.90;;;;;;5014526;28;20488;-58
2021/05/30 02:51:52;;;;;;;1.20;0.80;;;21.90;41.80;;;;;;5014610;28;20499;-58
2021/05/30 02:54:18;;;;;;;1.20;0.90;;;22.00;41.80;;;;;;5014500;28;20471;-58
2021/05/30 02:56:44;;;;;;;1.27;0.80;;;21.90;41.80;;;;;;5014362;28;20396;-58
2021/05/30 02:59:11;;;;;;;1.30;0.80;;;21.90;41.80;;;;;;5014102;28;20381;-58
2021/05/30 03:01:37;;;;;;;1.00;0.80;;;21.90;41.90;;;;;;5014423;28;20396;-58
2021/05/30 03:04:03;;;;;;;1.40;0.90;;;21.90;41.80;;;;;;5014434;28;20381;-58
2021/05/30 03:06:29;;;;;;;1.30;0.88;;;21.90;41.80;;;;;;5014212;28;20420;-58
2021/05/30 03:08:55;;;;;;;1.35;0.93;;;21.90;41.80;;;;;;5013836;28;20389;-58
2021/05/30 03:11:21;;;;;;;1.13;0.87;;;21.90;41.80;;;;;;5013263;28;20770;-58
2021/05/30 03:13:48;;;;;;;1.13;0.80;;;21.90;41.70;;;;;;5014000;28;20389;-58
2021/05/30 03:16:14;;;;;;;1.33;0.90;;;21.90;41.80;;;;;;5012752;28;20444;-58
2021/05/30 03:18:40;;;;;;;1.20;0.70;;;21.90;41.70;;;;;;5014063;28;20432;-58
2021/05/30 03:21:05;;;;;;;1.00;0.70;;;21.90;41.90;;;;;;5012550;28;20432;-58
2021/05/30 03:23:31;;;;;;;1.20;0.80;;;21.90;41.80;;;;;;5014021;28;20441;-58
2021/05/30 03:25:57;;;;;;;1.10;0.80;;;21.90;41.90;;;;;;5013957;28;20400;-58
2021/05/30 03:28:23;;;;;;;1.30;0.90;;;21.80;41.70;;;;;;5013870;28;20392;-57
2021/05/30 03:30:49;;;;;;;1.25;0.90;;;21.80;41.80;;;;;;5013416;28;20941;-58
2021/05/30 03:33:15;;;;;;;1.20;0.83;;;21.80;41.80;;;;;;5013725;28;20479;-58
2021/05/30 03:35:40;;;;;;;1.35;0.88;;;21.80;41.80;;;;;;5012610;28;20459;-58
2021/05/30 03:38:09;;;;;;;1.10;0.80;;;21.80;41.80;;;;;;5013864;28;20423;-58
2021/05/30 03:40:46;;;;;;;1.13;0.70;;;21.80;41.70;;;;;;5013679;28;20902;-58
2021/05/30 03:43:12;;;;;;;1.35;0.80;;;21.80;41.80;;;;;;5013234;28;20891;-58
2021/05/30 03:45:38;;;;;;;1.10;0.80;;;21.80;41.90;;;;;;5013748;28;20483;-58
2021/05/30 03:48:05;;;;;;;1.13;0.70;;;21.80;41.90;;;;;;5013571;28;20393;-58
2021/05/30 03:50:31;;;;;;;1.02;0.70;;;21.80;41.90;;;;;;5013321;28;20413;-58
2021/05/30 03:52:56;;;;;;;1.17;0.80;;;21.80;42.00;;;;;;5012961;28;20385;-58
2021/05/30 03:55:22;;;;;;;1.10;0.80;;;21.80;41.90;;;;;;5013559;28;20392;-58
2021/05/30 03:57:48;;;;;;;1.08;0.70;;;21.80;42.10;;;;;;5013320;28;20389;-58
2021/05/30 04:00:16;;;;;;;1.00;0.87;;;21.80;42.00;;;;;;5013271;28;20404;-58
2021/05/30 04:02:43;;;;;;;1.20;0.80;;;21.80;42.10;;;;;;5011985;28;20397;-58
2021/05/30 04:05:10;;;;;;;1.05;0.75;;;21.80;42.00;;;;;;5012992;28;20483;-58
2021/05/30 04:07:36;;;;;;;1.00;0.80;;;21.80;42.10;;;;;;5013176;28;20464;-58
2021/05/30 04:10:07;;;;;;;1.17;0.80;;;21.80;42.10;;;;;;5013155;28;20412;-58
2021/05/30 04:12:36;;;;;;;0.90;0.60;;;21.80;42.10;;;;;;5011805;28;20915;-58
2021/05/30 04:15:04;;;;;;;1.02;0.73;;;21.80;42.00;;;;;;5012613;28;20381;-58
2021/05/30 04:17:29;;;;;;;1.02;0.73;;;21.80;42.00;;;;;;5012902;28;20483;-58
2021/05/30 04:19:55;;;;;;;1.23;0.88;;;21.80;42.00;;;;;;5013133;28;20478;-58
2021/05/30 04:22:20;;;;;;;1.03;0.70;;;21.80;42.10;;;;;;5012725;28;20393;-58
2021/05/30 04:24:46;;;;;;;1.00;0.70;;;21.80;42.10;;;;;;5012551;28;20396;-58
2021/05/30 04:27:12;;;;;;;0.93;0.70;;;21.80;42.10;;;;;;5011393;28;20403;-58
2021/05/30 04:29:38;;;;;;;1.15;0.90;;;21.80;42.00;;;;;;5011512;28;20476;-58
2021/05/30 04:32:04;;;;;;;1.08;0.82;;;21.80;42.10;;;;;;5012763;28;20393;-58
2021/05/30 04:34:30;;;;;;;1.10;0.80;;;21.80;42.10;;;;;;5012708;28;20400;-58
2021/05/30 04:36:55;;;;;;;1.17;0.88;;;21.70;42.00;;;;;;5012152;28;20393;-58
2021/05/30 04:39:21;;;;;;;1.13;0.90;;;21.80;42.10;;;;;;5012641;28;20527;-58
2021/05/30 04:41:47;;;;;;;0.95;0.80;;;21.80;42.00;;;;;;5012540;28;20519;-58
2021/05/30 04:44:13;;;;;;;1.60;0.83;;;21.70;41.90;;;;;;5012393;28;20905;-58
2021/05/30 04:46:38;;;;;;;1.15;0.75;;;21.70;42.00;;;;;;5012441;28;20398;-58
2021/05/30 04:49:04;;;;;;;1.20;0.80;;;21.80;42.00;;;;;;5011948;28;20400;-58
2021/05/30 04:51:30;;;;;;;1.07;0.77;;;21.80;42.10;;;;;;5011109;28;20507;-58
2021/05/30 04:53:55;;;;;;;0.90;0.68;;;21.80;42.70;;;;;;5011306;28;20939;-58
2021/05/30 04:56:22;;;;;;;1.33;0.87;;;21.80;42.10;;;;;;5012302;28;20811;-58
2021/05/30 04:58:51;;;;;;;1.15;0.70;;;21.80;42.10;;;;;;5012082;28;20388;-58
2021/05/30 05:01:17;;;;;;;1.02;0.73;;;21.80;42.10;;;;;;5010708;28;20827;-57
2021/05/30 05:03:43;;;;;;;1.33;0.80;;;21.80;42.10;;;;;;5012268;28;20397;-58
2021/05/30 05:06:09;;;;;;;1.10;0.80;;;21.80;42.10;;;;;;5012153;28;20403;-58
2021/05/30 05:08:34;;;;;;;1.38;0.80;;;21.80;42.10;;;;;;5012181;28;20803;-58
2021/05/30 05:11:00;;;;;;;1.13;0.77;;;21.80;42.10;;;;;;5011832;28;20417;-58
2021/05/30 05:13:26;;;;;;;1.20;0.90;;;21.80;42.10;;;;;;5012064;28;20400;-58
2021/05/30 05:15:53;;;;;;;1.17;0.95;;;21.80;42.10;;;;;;5012146;28;20407;-58
2021/05/30 05:18:22;;;;;;;1.17;0.85;;;21.80;42.10;;;;;;5011828;28;20381;-58
2021/05/30 05:20:49;;;;;;;1.17;0.80;;;21.80;42.10;;;;;;5011891;28;20425;-58
2021/05/30 05:23:17;;;;;;;1.00;0.80;;;21.80;42.10;;;;;;5011797;28;20443;-58
2021/05/30 05:25:43;;;;;;;3.08;1.10;;;21.80;42.10;;;;;;5012206;28;20385;-58
2021/05/30 05:28:09;;;;;;;1.90;1.20;;;21.80;42.80;;;;;;5011703;28;20392;-58
2021/05/30 05:30:35;;;;;;;1.25;1.00;;;21.80;42.30;;;;;;5011671;28;20421;-58
2021/05/30 05:33:02;;;;;;;1.77;1.20;;;21.80;42.50;;;;;;5011236;28;20400;-58
2021/05/30 05:35:28;;;;;;;2.17;1.20;;;21.80;43.90;;;;;;5010844;28;20396;-58
2021/05/30 05:37:58;;;;;;;1.52;0.98;;;21.90;43.70;;;;;;5011754;28;20401;-59
2021/05/30 05:40:25;;;;;;;2.20;1.02;;;21.90;43.50;;;;;;5011670;28;20877;-59
2021/05/30 05:42:52;;;;;;;3.00;1.00;;;21.90;43.60;;;;;;5011273;28;20412;-59
2021/05/30 05:45:19;;;;;;;2.58;1.00;;;21.80;43.30;;;;;;5009957;28;20400;-59
2021/05/30 05:47:45;;;;;;;1.63;1.10;;;21.90;43.50;;;;;;5011646;28;20396;-58
2021/05/30 05:50:12;;;;;;;2.10;1.17;;;21.90;43.10;;;;;;5011501;28;20415;-58
2021/05/30 05:52:39;;;;;;;1.75;1.15;;;21.90;43.20;;;;;;5011794;28;20480;-58
2021/05/30 05:55:06;;;;;;;2.97;1.20;;;21.90;43.00;;;;;;5010621;28;20401;-58
2021/05/30 05:57:31;;;;;;;3.38;1.30;;;21.90;43.00;;;;;;5011313;28;20385;-58
2021/05/30 05:59:57;;;;;;;1.60;1.00;;;21.90;43.40;;;;;;5010252;28;20769;-58
2021/05/30 06:02:23;;;;;;;2.70;1.00;;;21.90;43.30;;;;;;5013376;28;20754;-59
2021/05/30 06:04:48;;;;;;;1.77;1.20;;;22.00;43.10;;;;;;5010279;28;20548;-58
2021/05/30 06:07:14;;;;;;;2.35;1.10;;;22.00;43.10;;;;;;5011031;28;20451;-58
2021/05/30 06:09:40;;;;;;;4.43;1.30;;;22.00;43.20;;;;;;5011329;28;20876;-58
2021/05/30 06:12:06;;;;;;;3.28;1.15;;;22.00;43.70;;;;;;5011485;28;20411;-58
2021/05/30 06:14:32;;;;;;;2.13;1.23;;;22.00;43.30;;;;;;5011406;28;20387;-59
2021/05/30 06:16:57;;;;;;;3.22;1.45;;;22.00;43.30;;;;;;5011028;28;20396;-59
2021/05/30 06:19:25;;;;;;;3.83;1.52;;;22.00;43.10;;;;;;5011302;28;20396;-59
2021/05/30 06:21:51;;;;;;;3.47;1.55;;;22.00;42.90;;;;;;5011376;28;20393;-58
2021/05/30 06:24:16;;;;;;;2.00;1.40;;;22.00;42.50;;;;;;5011340;28;20884;-59
2021/05/30 06:26:42;;;;;;;3.00;1.48;;;22.10;42.30;;;;;;5010082;28;20393;-58
2021/05/30 06:29:08;;;;;;;2.00;1.50;;;22.00;42.50;;;;;;5013496;28;20400;-59
2021/05/30 06:31:34;;;;;;;4.43;1.30;;;22.00;42.30;;;;;;5014946;28;20459;-58
2021/05/30 06:33:59;;;;;;;2.97;1.48;;;22.00;43.20;;;;;;5017204;28;20385;-58
2021/05/30 06:36:25;;;;;;;2.83;1.50;;;22.00;42.70;;;;;;5011216;28;20495;-59
2021/05/30 06:38:51;;;;;;;4.93;1.40;;;22.00;42.60;;;;;;5011295;28;20388;-58
2021/05/30 06:41:17;;;;;;;2.07;1.30;;;22.10;42.50;;;;;;5010797;28;20471;-58
2021/05/30 06:43:43;;;;;;;3.45;1.20;;;22.00;42.40;;;;;;5011047;28;20416;-58
2021/05/30 06:46:09;;;;;;;2.78;1.40;;;22.00;42.20;;;;;;5012326;28;20392;-58
2021/05/30 06:48:36;;;;;;;2.27;1.30;;;22.10;42.30;;;;;;5014744;28;20388;-58
2021/05/30 06:51:18;;;;;;;2.33;1.40;;;22.10;42.30;;;;;;5014152;28;20420;-58
2021/05/30 06:53:49;;;;;;;2.88;1.17;;;22.10;42.30;;;;;;5020830;28;20388;-59
2021/05/30 06:56:16;;;;;;;1.90;1.20;;;22.10;42.20;;;;;;5033203;28;20391;-58
2021/05/30 06:58:42;;;;;;;4.53;1.30;;;22.10;42.30;;;;;;5034352;28;20479;-58
2021/05/30 07:01:08;;;;;;;3.95;1.30;;;22.10;42.40;;;;;;5033761;28;20499;-59
2021/05/30 07:03:34;;;;;;;3.40;1.45;;;22.20;42.40;;;;;;5034166;28;20482;-58
2021/05/30 07:06:00;;;;;;;2.13;1.10;;;22.20;42.30;;;;;;5049439;28;20439;-58
2021/05/30 07:08:26;;;;;;;4.60;1.20;;;22.30;42.40;;;;;;5033975;28;20432;-58
2021/05/30 07:10:55;;;;;;;4.00;1.42;;;22.30;42.40;;;;;;5033942;28;20414;-58
2021/05/30 07:13:21;;;;;;;2.40;1.10;;;22.30;42.40;;;;;;5033574;28;21187;-59
2021/05/30 07:15:48;;;;;;;2.80;1.30;;;22.30;42.80;;;;;;5033649;28;20406;-58
2021/05/30 07:18:14;;;;;;;4.95;1.40;;;22.30;43.00;;;;;;5033454;28;20422;-59
2021/05/30 07:20:43;;;;;;;3.92;1.35;;;22.30;43.30;;;;;;5033800;28;20513;-58
2021/05/30 07:23:09;;;;;;;2.40;1.20;;;22.30;43.20;;;;;;5033132;28;20466;-58
2021/05/30 07:25:35;;;;;;;3.55;1.33;;;22.30;43.20;;;;;;5033455;28;20444;-59
2021/05/30 07:28:01;;;;;;;4.05;1.50;;;22.30;42.60;;;;;;5033649;28;20882;-58
2021/05/30 07:30:27;;;;;;;3.33;1.50;;;22.20;42.60;;;;;;5033412;28;20453;-59
2021/05/30 07:32:53;;;;;;;3.17;1.45;;;22.20;42.30;;;;;;5033552;28;20486;-58
2021/05/30 07:35:18;;;;;;;3.92;1.52;;;22.20;42.10;;;;;;5032888;28;20802;-58
2021/05/30 07:37:44;;;;;;;3.40;1.50;;;22.20;41.70;;;;;;5023536;28;20742;-59
2021/05/30 07:40:11;;;;;;;3.15;1.50;;;22.20;41.70;;;;;;5013468;28;20401;-59
2021/05/30 07:42:36;;;;;;;3.78;1.50;;;22.20;41.70;;;;;;5013527;28;20442;-59
2021/05/30 07:45:04;;;;;;;3.47;1.58;;;22.20;41.10;;;;;;5013304;28;20480;-59
2021/05/30 07:47:30;;;;;;;3.80;1.83;;;22.20;41.10;;;;;;5013288;28;20988;-60
2021/05/30 07:49:55;;;;;;;3.30;1.40;;;22.20;40.70;;;;;;5013376;28;20452;-59
2021/05/30 07:52:21;;;;;;;2.17;1.47;;;22.20;40.60;;;;;;5013347;28;20466;-59
2021/05/30 07:54:47;;;;;;;3.80;1.35;;;22.20;40.60;;;;;;5013406;28;20395;-59
2021/05/30 07:57:12;;;;;;;2.90;1.50;;;22.20;40.60;;;;;;5012545;28;20759;-59
2021/05/30 07:59:38;;;;;;;3.63;1.48;;;22.30;40.70;;;;;;5012907;28;20396;-59
2021/05/30 08:02:04;;;;;;;3.47;1.60;;;22.30;40.80;;;;;;5013379;28;20919;-59
2021/05/30 08:04:29;;;;;;;2.93;1.53;;;22.30;40.90;;;;;;5013059;28;20388;-60
2021/05/30 08:06:55;;;;;;;2.78;1.30;;;22.40;40.80;;;;;;5013128;28;20428;-59
2021/05/30 08:09:21;;;;;;;2.40;1.20;;;22.40;41.00;;;;;;5012495;28;20427;-58
2021/05/30 08:11:48;;;;;;;2.13;1.60;;;22.40;40.90;;;;;;5012458;28;20420;-59
2021/05/30 08:14:14;;;;;;;3.20;1.40;;;22.40;40.60;;;;;;5012879;28;20389;-59
2021/05/30 08:16:41;;;;;;;3.28;1.42;;;22.30;40.70;;;;;;5012964;28;20806;-59
2021/05/30 08:19:07;;;;;;;1.53;1.10;;;22.40;40.80;;;;;;5012292;28;20405;-58
2021/05/30 08:21:32;;;;;;;2.35;1.38;;;22.40;41.00;;;;;;5012916;28;20393;-59
2021/05/30 08:23:58;;;;;;;1.67;1.27;;;22.50;41.00;;;;;;5012838;28;20401;-59
2021/05/30 08:26:24;;;;;;;1.87;1.30;;;22.50;40.90;;;;;;5012448;28;20389;-59
2021/05/30 08:28:50;;;;;;;2.20;1.38;;;22.60;40.90;;;;;;5012608;28;20812;-59
2021/05/30 08:31:16;;;;;;;2.10;1.30;;;22.60;40.80;;;;;;5012004;28;20445;-59
2021/05/30 08:33:41;;;;;;;1.90;1.10;;;22.60;40.70;;;;;;5012658;28;20393;-59
2021/05/30 08:36:07;;;;;;;2.10;1.40;;;22.70;40.70;;;;;;5012526;28;20744;-59
2021/05/30 08:38:33;;;;;;;2.20;1.17;;;22.70;40.70;;;;;;5012593;28;20810;-59
2021/05/30 08:40:59;;;;;;;1.80;1.20;;;22.70;40.60;;;;;;5012321;28;20886;-59
2021/05/30 08:43:26;;;;;;;2.40;1.33;;;22.70;40.50;;;;;;5012074;28;20873;-59
2021/05/30 08:45:51;;;;;;;1.60;1.20;;;22.80;40.50;;;;;;5012413;28;20466;-59
2021/05/30 08:48:17;;;;;;;2.35;1.10;;;22.80;40.50;;;;;;5012295;28;20393;-59
2021/05/30 08:50:43;;;;;;;1.73;1.20;;;22.70;40.50;;;;;;5012152;28;20761;-59
2021/05/30 08:53:09;;;;;;;2.20;1.13;;;22.70;40.60;;;;;;5011713;28;20389;-59
2021/05/30 08:55:37;;;;;;;1.70;1.10;;;22.70;40.50;;;;;;5012438;28;20397;-59
2021/05/30 08:58:05;;;;;;;2.30;1.20;;;22.80;40.50;;;;;;5012354;28;20377;-59
2021/05/30 09:00:32;;;;;;;1.83;1.05;;;22.80;40.40;;;;;;5012078;28;20404;-59
2021/05/30 09:03:15;;;;;;;2.20;1.35;;;22.70;40.10;;;;;;5012163;28;20384;-59
2021/05/30 09:05:41;;;;;;;2.15;1.20;;;22.70;40.40;;;;;;5012140;28;20539;-59
2021/05/30 09:08:08;;;;;;;2.20;1.20;;;22.70;40.40;;;;;;5012075;28;20388;-59
2021/05/30 09:10:34;;;;;;;1.73;1.10;;;22.70;40.40;;;;;;5010972;28;20440;-59
2021/05/30 09:13:03;;;;;;;1.63;1.08;;;22.80;40.50;;;;;;5011756;28;20753;-59
2021/05/30 09:15:49;;;;;;;2.10;1.30;;;22.80;40.40;;;;;;5011507;28;20400;-59
2021/05/30 09:18:23;;;;;;;2.00;1.17;;;22.80;40.40;;;;;;5012046;28;20381;-59
2021/05/30 09:21:09;;;;;;;1.50;1.20;;;22.80;40.40;;;;;;5011896;28;20480;-59
2021/05/30 09:23:37;;;;;;;1.90;1.20;;;22.80;40.30;;;;;;5011817;28;20399;-59
2021/05/30 09:26:10;;;;;;;2.25;1.10;;;22.80;40.20;;;;;;5011660;28;20420;-59
2021/05/30 09:28:36;;;;;;;1.92;1.27;;;22.80;40.40;;;;;;5011449;28;20526;-59
2021/05/30 09:31:03;;;;;;;1.90;1.20;;;22.80;40.30;;;;;;5010798;28;20424;-59
2021/05/30 09:33:30;;;;;;;2.13;1.10;;;22.80;40.20;;;;;;5010057;28;20727;-59
2021/05/30 09:35:59;;;;;;;2.35;1.10;;;22.80;40.30;;;;;;5010333;28;20447;-60
2021/05/30 09:38:27;;;;;;;1.85;1.20;;;22.90;40.10;;;;;;5010278;28;20476;-59
2021/05/30 09:40:55;;;;;;;1.77;1.10;;;22.90;40.30;;;;;;5010393;28;20393;-60
2021/05/30 09:43:29;;;;;;;1.77;1.20;;;22.90;40.20;;;;;;5009620;28;20628;-59
2021/05/30 09:46:15;;;;;;;1.50;1.00;;;23.00;40.20;;;;;;5010366;28;20397;-59
2021/05/30 09:48:44;;;;;;;1.40;1.20;;;23.00;40.10;;;;;;5009024;28;20446;-59
2021/05/30 09:51:27;;;;;;;1.80;1.10;;;23.10;40.10;;;;;;5009648;28;20428;-60
2021/05/30 09:53:53;;;;;;;1.75;1.15;;;23.10;40.00;;;;;;5010245;28;20904;-59
2021/05/30 09:56:28;;;;;;;1.52;1.20;;;23.10;39.90;;;;;;5010248;28;20473;-58
2021/05/30 09:58:54;;;;;;;4.50;1.70;;;23.20;39.50;;;;;;5009462;28;20433;-59
2021/05/30 10:01:20;;;;;;;3.33;1.40;;;23.20;38.90;;;;;;5009317;28;20392;-59
2021/05/30 10:03:46;;;;;;;4.25;1.50;;;23.20;38.30;;;;;;5010426;28;20389;-59
2021/05/30 10:06:13;;;;;;;3.37;1.60;;;23.20;37.80;;;;;;5010112;28;20442;-58
2021/05/30 10:08:39;;;;;;;5.05;1.90;;;23.20;37.50;;;;;;5010103;28;20804;-59
2021/05/30 10:11:05;;;;;;;3.03;1.50;;;23.20;37.10;;;;;;5009924;28;20425;-58
2021/05/30 10:13:31;;;;;;;4.03;1.50;;;23.20;36.40;;;;;;5009927;28;20825;-58
2021/05/30 10:15:59;;;;;;;4.50;1.80;;;23.20;35.50;;;;;;5010073;28;20458;-59
2021/05/30 10:18:38;;;;;;;3.28;1.80;;;23.20;35.20;;;;;;5010169;28;20397;-59
2021/05/30 10:21:05;;;;;;;7.55;2.50;;;23.20;34.90;;;;;;5010966;28;20769;-59
2021/05/30 10:23:31;;;;;;;9.85;2.70;;;23.10;34.90;;;;;;5013408;28;20803;-60
2021/05/30 10:26:23;;;;;;;12.02;2.90;;;23.30;35.10;;;;;;5012321;28;20462;-58
2021/05/30 10:28:54;;;;;;;8.32;2.63;;;23.40;35.10;;;;;;5010569;28;20401;-59
2021/05/30 10:31:27;;;;;;;12.80;2.50;;;23.50;35.60;;;;;;5027949;28;20502;-61
2021/05/30 10:34:19;;;;;;;10.43;2.60;;;23.50;35.70;;;;;;4999220;28;20393;-59
2021/05/30 10:37:16;;;;;;;9.55;2.50;;;23.50;36.00;;;;;;5020212;28;20383;-61
2021/05/30 10:39:42;;;;;;;7.53;2.30;;;23.60;36.50;;;;;;5017093;28;20385;-59
2021/05/30 10:42:20;;;;;;;6.63;2.38;;;23.60;36.60;;;;;;5014427;28;20392;-58
2021/05/30 10:44:50;;;;;;;6.68;2.30;;;23.60;36.80;;;;;;5013977;28;20439;-58
2021/05/30 10:47:17;;;;;;;6.78;2.50;;;23.50;36.80;;;;;;5013206;28;20397;-58
2021/05/30 10:50:05;;;;;;;6.03;2.20;;;23.50;37.20;;;;;;5014229;28;20423;-59
2021/05/30 10:52:39;;;;;;;6.47;2.28;;;23.50;37.30;;;;;;5014259;28;20388;-59
2021/05/30 10:55:27;;;;;;;7.15;2.30;;;23.40;37.20;;;;;;5014272;28;20407;-59
2021/05/30 10:57:53;;;;;;;7.72;2.20;;;23.50;37.50;;;;;;5013928;28;20388;-59
2021/05/30 11:00:19;;;;;;;6.60;2.08;;;23.50;37.50;;;;;;5019469;28;20390;-59
2021/05/30 11:03:06;;;;;;;4.60;1.90;;;23.50;37.50;;;;;;5021871;28;20960;-59
2021/05/30 11:05:39;;;;;;;4.87;2.13;;;23.50;37.50;;;;;;5013796;28;20384;-58
2021/05/30 11:08:05;;;;;;;3.65;1.90;;;23.50;37.60;;;;;;5012986;28;20389;-59
2021/05/30 11:10:30;;;;;;;5.68;2.25;;;23.50;37.50;;;;;;5012696;28;20421;-59
2021/05/30 11:12:58;;;;;;;3.90;1.80;;;23.50;37.40;;;;;;5009262;28;21013;-59
2021/05/30 11:15:25;;;;;;;6.47;2.00;;;23.60;37.70;;;;;;5033420;28;20545;-59
2021/05/30 11:17:59;;;;;;;5.47;1.92;;;23.60;37.60;;;;;;5033977;28;20398;-59
2021/05/30 11:20:43;;;;;;;3.83;1.67;;;23.70;37.80;;;;;;5034155;28;20764;-59
2021/05/30 11:23:14;;;;;;;4.93;1.92;;;23.80;37.80;;;;;;5032146;28;20771;-59
2021/05/30 11:25:46;;;;;;;4.60;1.70;;;23.90;37.60;;;;;;5033557;28;20391;-58
2021/05/30 11:28:13;;;;;;;4.50;1.83;;;23.90;37.60;;;;;;5033235;28;20387;-59
2021/05/30 11:30:46;;;;;;;4.68;2.00;;;23.90;37.30;;;;;;5017981;28;20427;-58
2021/05/30 11:33:21;;;;;;;3.20;1.90;;;23.90;37.40;;;;;;5012468;28;20409;-59
2021/05/30 11:35:50;;;;;;;4.93;1.73;;;23.90;37.60;;;;;;5013630;28;20396;-59
2021/05/30 11:38:15;;;;;;;4.47;1.70;;;23.90;37.60;;;;;;5013430;28;20392;-58
2021/05/30 11:40:41;;;;;;;3.38;1.45;;;23.90;37.60;;;;;;5013393;28;20389;-58
2021/05/30 11:43:18;;;;;;;4.22;1.50;;;23.90;37.60;;;;;;5013377;28;20411;-59
2021/05/30 11:45:46;;;;;;;3.78;1.75;;;23.90;37.50;;;;;;5013174;28;20389;-58
2021/05/30 11:48:17;;;;;;;4.00;1.67;;;23.80;37.50;;;;;;5013387;28;20455;-58
2021/05/30 11:50:53;;;;;;;4.68;1.75;;;23.90;37.40;;;;;;5013815;28;20424;-59
2021/05/30 11:53:30;;;;;;;4.28;1.60;;;24.00;37.50;;;;;;5012823;28;20389;-59
2021/05/30 11:55:58;;;;;;;4.20;1.40;;;24.10;37.40;;;;;;5013313;28;20788;-59
2021/05/30 11:58:24;;;;;;;6.20;1.63;;;24.10;37.40;;;;;;5012024;28;20389;-58
2021/05/30 12:00:58;;;;;;;3.40;1.52;;;24.10;37.60;;;;;;5013413;28;20441;-59
2021/05/30 12:03:24;;;;;;;4.00;1.67;;;24.20;37.50;;;;;;5012774;28;20400;-58
2021/05/30 12:06:01;;;;;;;3.20;1.43;;;24.10;37.40;;;;;;5012975;28;20799;-59
2021/05/30 12:08:30;;;;;;;3.65;1.40;;;24.10;37.50;;;;;;5012990;28;20395;-59
2021/05/30 12:11:02;;;;;;;5.43;1.60;;;24.10;37.50;;;;;;5013014;28;20408;-58
2021/05/30 12:13:36;;;;;;;3.55;1.58;;;24.10;37.50;;;;;;5012336;28;20528;-58
2021/05/30 12:16:19;;;;;;;4.47;1.60;;;24.10;37.50;;;;;;5012624;28;20912;-59
2021/05/30 12:19:02;;;;;;;4.43;1.58;;;24.20;37.50;;;;;;5012682;28;20451;-59
2021/05/30 12:21:46;;;;;;;2.40;1.45;;;24.30;37.70;;;;;;5011969;28;20936;-59
2021/05/30 12:24:14;;;;;;;4.15;1.40;;;24.30;37.60;;;;;;5011576;28;20446;-59
2021/05/30 12:26:46;;;;;;;3.30;1.50;;;24.40;37.50;;;;;;5012654;28;20389;-59
2021/05/30 12:29:12;;;;;;;3.60;1.60;;;24.40;37.30;;;;;;5012393;28;20411;-58
2021/05/30 12:31:39;;;;;;;2.85;1.40;;;24.50;37.30;;;;;;5012425;28;20427;-58
2021/05/30 12:34:09;;;;;;;4.13;1.63;;;24.60;37.30;;;;;;5012622;28;20392;-58
2021/05/30 12:36:46;;;;;;;9.73;1.85;;;24.60;37.10;;;;;;5012813;28;20400;-58
2021/05/30 12:39:13;;;;;;;11.23;2.38;;;24.70;37.30;;;;;;5012217;28;20472;-58
2021/05/30 12:42:19;;;;;;;7.57;2.00;;;24.70;37.20;;;;;;5011794;28;20406;-59
2021/05/30 12:44:53;;;;;;;10.32;1.90;;;24.70;37.10;;;;;;5010572;28;20413;-58
2021/05/30 12:47:26;;;;;;;9.25;2.00;;;24.70;37.30;;;;;;5012019;28;20494;-58
2021/05/30 12:49:55;;;;;;;6.85;1.75;;;24.80;37.30;;;;;;5012105;28;20416;-58